Frank, North Carolina
Current Conditions -  °F | °C
As of 10:55 AM on Friday 31 Oct 2014 (Local Time) from KTNB Reporting Station
Clear Clear  
Wind Chill: 43°   Ceiling: Unl
Heat Index: 43°   Visibility: 10mi
Dew Point: 35°   Wind: 3mph
Humidity: 76%   Direction: 140°SE
Pressure: 29.93"   Gusts: NA
Location:  36.0227°N, 81.9499°W
Report Text: KTNB 311455Z AUTO 14003KT 10SM CLR 06/02 A2993 RMK AO2 T00590019
Loading
Personal Weather Stations






























Interactive Weather Map
Tropical Storm Tracking
New forecast layout! Learn more

10-Day Weather Forecast

Advertisements
Track Severe Weather on mobile